createdAt,value
2023-03-20T00:00:53.533Z,100644.53
2023-03-20T00:01:56.798Z,100648.02
2023-03-20T00:02:59.581Z,100641.13
2023-03-20T00:04:05.765Z,100643.87
2023-03-20T00:05:20.431Z,100641.25
2023-03-20T00:06:26.811Z,100636.98
2023-03-20T00:07:29.862Z,100635.30
2023-03-20T00:08:33.226Z,100638.03
2023-03-20T00:09:35.983Z,100639.75
2023-03-20T00:10:41.340Z,100632.91
2023-03-20T00:11:49.133Z,100635.61
2023-03-20T00:12:52.325Z,100632.87
2023-03-20T00:13:58.813Z,100631.07
2023-03-20T00:15:02.828Z,100633.73
2023-03-20T00:16:05.703Z,100634.59
2023-03-20T00:17:13.091Z,100628.56
2023-03-20T00:18:18.871Z,100635.56
2023-03-20T00:19:30.894Z,100630.40
2023-03-20T00:20:34.409Z,100625.27
2023-03-20T00:21:37.623Z,100631.48
2023-03-20T00:22:41.649Z,100626.24
2023-03-20T00:23:44.978Z,100628.04
2023-03-20T00:24:48.857Z,100628.94
2023-03-20T00:26:14.587Z,100628.08
2023-03-20T00:27:18.911Z,100629.87
2023-03-20T00:28:24.215Z,100622.09
2023-03-20T00:29:29.048Z,100622.23
2023-03-20T00:30:31.435Z,100618.91
2023-03-20T00:31:37.675Z,100614.49
2023-03-20T00:32:41.124Z,100615.39
2023-03-20T00:33:43.441Z,100616.32
2023-03-20T00:34:46.460Z,100619.95
2023-03-20T00:35:49.562Z,100618.12
2023-03-20T00:36:54.991Z,100616.54
2023-03-20T00:37:57.741Z,100619.30
2023-03-20T00:39:05.598Z,100614.25
2023-03-20T00:40:09.489Z,100616.94
2023-03-20T00:41:26.658Z,100619.04
2023-03-20T00:42:29.791Z,100612.91
2023-03-20T00:43:33.095Z,100618.14
2023-03-20T00:44:38.411Z,100617.97
2023-03-20T00:45:44.912Z,100612.80
2023-03-20T00:46:49.979Z,100609.39
2023-03-20T00:47:53.570Z,100617.18
2023-03-20T00:48:58.324Z,100614.66
2023-03-20T00:50:02.096Z,100619.77
2023-03-20T00:51:05.785Z,100600.68
2023-03-20T00:52:13.353Z,100616.45
2023-03-20T00:53:15.975Z,100607.70
2023-03-20T00:54:19.141Z,100611.16
2023-03-20T00:55:23.724Z,100614.56
2023-03-20T00:56:34.249Z,100612.02
2023-03-20T00:57:40.324Z,100607.67
2023-03-20T00:58:42.554Z,100612.77
2023-03-20T00:59:50.607Z,100609.15
2023-03-20T01:00:53.836Z,100610.84
2023-03-20T01:01:57.407Z,100612.56
2023-03-20T01:03:01.167Z,100608.00
2023-03-20T01:04:06.265Z,100608.83
2023-03-20T01:05:09.504Z,100614.03
2023-03-20T01:06:13.308Z,100606.14
2023-03-20T01:07:15.860Z,100604.45
2023-03-20T01:08:20.877Z,100616.61
2023-03-20T01:09:25.375Z,100606.85
2023-03-20T01:10:30.532Z,100611.01
2023-03-20T01:11:33.082Z,100612.73
2023-03-20T01:12:35.696Z,100610.11
2023-03-20T01:13:39.387Z,100611.09
2023-03-20T01:14:43.360Z,100611.13
2023-03-20T01:15:47.341Z,100611.23
2023-03-20T01:16:50.933Z,100607.71
2023-03-20T01:17:54.963Z,100608.50
2023-03-20T01:18:58.459Z,100602.33
2023-03-20T01:20:00.871Z,100603.19
2023-03-20T01:21:04.621Z,100599.59
2023-03-20T01:22:09.114Z,100604.80
2023-03-20T01:23:12.787Z,100607.38
2023-03-20T01:24:18.691Z,100608.28
2023-03-20T01:25:21.570Z,100604.76
2023-03-20T01:26:39.770Z,100607.34
2023-03-20T01:27:47.508Z,100600.38
2023-03-20T01:28:51.478Z,100597.77
2023-03-20T01:29:54.993Z,100600.34
2023-03-20T01:31:00.563Z,100601.23
2023-03-20T01:32:08.532Z,100601.99
2023-03-20T01:33:14.158Z,100592.30
2023-03-20T01:34:18.756Z,100592.30
2023-03-20T01:35:25.929Z,100594.02
2023-03-20T01:36:28.997Z,100591.39
2023-03-20T01:37:34.634Z,100590.45
2023-03-20T01:38:42.825Z,100587.80
2023-03-20T01:39:46.434Z,100593.82
2023-03-20T01:41:00.893Z,100589.37
2023-03-20T01:42:06.295Z,100582.37
2023-03-20T01:43:10.982Z,100590.11
2023-03-20T01:44:25.866Z,100590.93
2023-03-20T01:45:33.115Z,100590.11
2023-03-20T01:46:38.349Z,100581.47
2023-03-20T01:47:43.527Z,100589.48
2023-03-20T01:48:54.204Z,100585.96
2023-03-20T01:50:16.042Z,100585.17
2023-03-20T01:51:20.943Z,100586.00
2023-03-20T01:52:24.948Z,100588.63
2023-03-20T01:53:31.150Z,100589.33
2023-03-20T01:54:37.477Z,100578.73
2023-03-20T01:55:44.836Z,100588.43
2023-03-20T01:56:53.194Z,100584.23
2023-03-20T01:57:58.221Z,100576.45
2023-03-20T01:59:06.834Z,100579.90
2023-03-20T02:00:13.903Z,100581.77
2023-03-20T02:01:19.139Z,100587.05
2023-03-20T02:02:26.098Z,100591.44
2023-03-20T02:03:31.199Z,100594.95
2023-03-20T02:04:41.274Z,100591.48
2023-03-20T02:05:46.818Z,100588.78
2023-03-20T02:06:50.117Z,100588.81
2023-03-20T02:08:05.842Z,100587.99
2023-03-20T02:09:09.424Z,100590.66
2023-03-20T02:10:16.234Z,100589.79
2023-03-20T02:11:27.459Z,100586.46
2023-03-20T02:12:32.110Z,100595.14
2023-03-20T02:13:35.636Z,100599.48
2023-03-20T02:14:39.523Z,100588.89
2023-03-20T02:16:10.772Z,100588.97
2023-03-20T02:17:34.101Z,100595.03
2023-03-20T02:18:40.286Z,100591.58
2023-03-20T02:20:04.720Z,100594.09
2023-03-20T02:21:26.326Z,100591.48
2023-03-20T02:22:30.733Z,100594.91
2023-03-20T02:23:51.324Z,100598.47
2023-03-20T02:25:07.340Z,100596.64
2023-03-20T02:26:15.969Z,100601.80
2023-03-20T02:27:36.345Z,100600.12
2023-03-20T02:28:49.338Z,100601.05
2023-03-20T02:30:10.749Z,100601.95
2023-03-20T02:31:36.130Z,100602.85
2023-03-20T02:32:50.572Z,100598.62
2023-03-20T02:33:56.285Z,100603.86
2023-03-20T02:35:07.176Z,100602.96
2023-03-20T02:36:26.738Z,100602.14
2023-03-20T02:37:50.672Z,100606.48
2023-03-20T02:38:55.445Z,100605.77
2023-03-20T02:40:01.487Z,100604.02
2023-03-20T02:41:14.960Z,100604.91
2023-03-20T02:42:34.361Z,100600.90
2023-03-20T02:43:51.634Z,100597.34
2023-03-20T02:44:59.469Z,100600.79
2023-03-20T02:46:12.579Z,100603.45
2023-03-20T02:47:28.982Z,100600.83
2023-03-20T02:48:47.835Z,100598.20
2023-03-20T02:49:52.368Z,100601.72
2023-03-20T02:50:57.754Z,100584.17
2023-03-20T02:52:02.762Z,100588.41
2023-03-20T02:53:11.330Z,100592.75
2023-03-20T02:54:17.396Z,100579.58
2023-03-20T02:55:29.460Z,100583.02
2023-03-20T02:56:40.260Z,100584.81
2023-03-20T02:57:44.507Z,100579.61
2023-03-20T02:59:06.574Z,100586.80
2023-03-20T03:00:11.216Z,100585.15
2023-03-20T03:01:20.376Z,100583.47
2023-03-20T03:02:33.329Z,100584.40
2023-03-20T03:03:39.897Z,100586.41
2023-03-20T03:04:54.071Z,100583.79
2023-03-20T03:06:00.589Z,100584.61
2023-03-20T03:07:05.152Z,100574.17
2023-03-20T03:08:13.516Z,100575.94
2023-03-20T03:09:18.440Z,100569.13
2023-03-20T03:10:28.613Z,100572.49
2023-03-20T03:11:34.722Z,100567.33
2023-03-20T03:12:42.191Z,100563.02
2023-03-20T03:13:46.735Z,100566.75
2023-03-20T03:14:51.348Z,100570.23
2023-03-20T03:15:59.163Z,100557.29
2023-03-20T03:17:08.028Z,100560.77
2023-03-20T03:18:15.357Z,100562.52
2023-03-20T03:19:23.471Z,100560.80
2023-03-20T03:20:32.971Z,100555.81
2023-03-20T03:21:37.803Z,100556.78
2023-03-20T03:22:41.057Z,100555.95
2023-03-20T03:23:47.469Z,100554.12
2023-03-20T03:24:53.307Z,100557.73
2023-03-20T03:25:59.372Z,100551.75
2023-03-20T03:27:05.161Z,100553.54
2023-03-20T03:28:11.226Z,100550.95
2023-03-20T03:29:15.613Z,100550.03
2023-03-20T03:30:21.823Z,100550.92
2023-03-20T03:31:25.485Z,100546.63
2023-03-20T03:32:31.994Z,100544.83
2023-03-20T03:33:37.449Z,100540.45
2023-03-20T03:34:40.678Z,100543.14
2023-03-20T03:35:46.895Z,100549.27
2023-03-20T03:36:51.253Z,100542.28
2023-03-20T03:37:58.560Z,100538.77
2023-03-20T03:39:03.726Z,100536.98
2023-03-20T03:40:15.343Z,100542.25
2023-03-20T03:41:22.753Z,100541.39
2023-03-20T03:42:35.625Z,100539.70
2023-03-20T03:43:46.442Z,100537.25
2023-03-20T03:44:51.543Z,100539.87
2023-03-20T03:46:01.967Z,100543.34
2023-03-20T03:47:08.556Z,100539.80
2023-03-20T03:48:16.644Z,100533.61
2023-03-20T03:49:23.592Z,100540.59
2023-03-20T03:50:34.910Z,100540.59
2023-03-20T03:51:40.251Z,100539.66
2023-03-20T03:52:48.224Z,100537.02
2023-03-20T03:53:56.580Z,100540.42
2023-03-20T03:55:01.672Z,100540.45
2023-03-20T03:56:11.354Z,100541.31
2023-03-20T03:57:16.993Z,100540.52
2023-03-20T03:58:24.130Z,100539.63
2023-03-20T03:59:38.352Z,100542.28
2023-03-20T04:00:43.090Z,100538.87
2023-03-20T04:01:46.888Z,100545.00
2023-03-20T04:02:52.002Z,100540.62
2023-03-20T04:04:01.493Z,100543.34
2023-03-20T04:05:07.282Z,100548.58
2023-03-20T04:06:13.843Z,100551.19
2023-03-20T04:07:17.159Z,100546.72
2023-03-20T04:08:21.241Z,100546.72
2023-03-20T04:09:24.577Z,100538.14
2023-03-20T04:10:30.769Z,100542.48
2023-03-20T04:11:38.030Z,100547.62
2023-03-20T04:12:44.200Z,100544.24
2023-03-20T04:13:48.969Z,100542.55
2023-03-20T04:14:51.346Z,100543.41
2023-03-20T04:15:55.783Z,100547.62
2023-03-20T04:17:00.435Z,100540.56
2023-03-20T04:18:05.091Z,100550.06
2023-03-20T04:19:08.156Z,100549.20
2023-03-20T04:20:13.194Z,100551.06
2023-03-20T04:21:16.298Z,100554.64
2023-03-20T04:22:21.835Z,100547.72
2023-03-20T04:23:25.396Z,100547.78
2023-03-20T04:24:28.618Z,100550.47
2023-03-20T04:25:31.707Z,100549.57
2023-03-20T04:26:35.015Z,100553.84
2023-03-20T04:27:38.569Z,100553.64
2023-03-20T04:28:45.512Z,100548.23
2023-03-20T04:30:06.561Z,100557.67
2023-03-20T04:31:19.347Z,100559.25
2023-03-20T04:32:24.731Z,100546.95
2023-03-20T04:33:48.690Z,100551.19
2023-03-20T04:35:10.158Z,100559.77
2023-03-20T04:36:14.584Z,100551.69
2023-03-20T04:37:17.820Z,100547.73
2023-03-20T04:38:23.653Z,100558.86
2023-03-20T04:39:33.025Z,100546.77
2023-03-20T04:40:36.708Z,100550.78
2023-03-20T04:41:41.409Z,100550.59
2023-03-20T04:42:44.643Z,100545.70
2023-03-20T04:43:47.194Z,100554.69
2023-03-20T04:44:50.367Z,100547.61
2023-03-20T04:45:53.779Z,100547.27
2023-03-20T04:46:59.253Z,100553.84
2023-03-20T04:48:03.433Z,100564.30
2023-03-20T04:49:07.823Z,100566.28
2023-03-20T04:50:12.230Z,100572.17
2023-03-20T04:51:16.385Z,100564.47
2023-03-20T04:52:21.598Z,100568.52
2023-03-20T04:53:27.071Z,100570.81
2023-03-20T04:54:32.028Z,100574.95
2023-03-20T04:55:35.521Z,100570.25
2023-03-20T04:56:38.010Z,100574.28
2023-03-20T04:57:45.766Z,100577.37
2023-03-20T04:58:48.875Z,100576.92
2023-03-20T04:59:56.011Z,100586.13
2023-03-20T05:00:59.334Z,100596.55
2023-03-20T05:02:03.255Z,100591.39
2023-03-20T05:03:08.006Z,100594.98
2023-03-20T05:04:11.752Z,100593.63
2023-03-20T05:05:15.862Z,100593.05
2023-03-20T05:06:20.682Z,100597.81
2023-03-20T05:07:24.803Z,100599.63
2023-03-20T05:08:30.092Z,100601.70
2023-03-20T05:09:35.182Z,100598.08
2023-03-20T05:10:40.609Z,100585.20
2023-03-20T05:11:51.707Z,100591.48
2023-03-20T05:14:10.217Z,100592.70
2023-03-20T05:15:29.898Z,100589.59
2023-03-20T05:16:48.315Z,100585.84
2023-03-20T05:18:02.709Z,100587.69
2023-03-20T05:19:25.438Z,100576.48
2023-03-20T05:20:45.645Z,100578.02
2023-03-20T05:21:51.581Z,100579.63
2023-03-20T05:22:57.050Z,100584.19
2023-03-20T05:24:06.760Z,100576.84
2023-03-20T05:25:27.454Z,100587.75
2023-03-20T05:26:46.720Z,100590.11
2023-03-20T05:27:56.930Z,100595.95
2023-03-20T05:29:01.882Z,100590.83
2023-03-20T05:30:23.880Z,100589.63
2023-03-20T05:31:38.043Z,100597.74
2023-03-20T05:32:58.964Z,100603.33
2023-03-20T05:34:08.237Z,100597.43
2023-03-20T05:35:22.195Z,100594.25
2023-03-20T05:36:27.686Z,100592.48
2023-03-20T05:37:35.568Z,100598.70
2023-03-20T05:38:57.618Z,100596.64
2023-03-20T05:40:20.017Z,100588.97
2023-03-20T05:41:25.251Z,100593.01
2023-03-20T05:42:35.233Z,100589.77
2023-03-20T05:43:42.809Z,100582.11
2023-03-20T05:44:48.839Z,100576.73
2023-03-20T05:45:54.164Z,100576.75
2023-03-20T05:47:15.139Z,100573.15
2023-03-20T05:48:35.301Z,100576.46
2023-03-20T05:49:49.228Z,100583.95
2023-03-20T05:50:54.291Z,100579.42
2023-03-20T05:51:59.573Z,100577.83
2023-03-20T05:53:17.161Z,100574.08
2023-03-20T05:54:28.596Z,100575.05
2023-03-20T05:55:37.208Z,100575.66
2023-03-20T05:56:59.320Z,100571.33
2023-03-20T05:58:13.465Z,100572.42
2023-03-20T05:59:27.317Z,100577.98
2023-03-20T06:00:48.487Z,100578.97
2023-03-20T06:02:09.681Z,100595.50
2023-03-20T06:03:16.059Z,100594.48
2023-03-20T06:04:21.402Z,100610.52
2023-03-20T06:05:35.949Z,100612.92
2023-03-20T06:06:39.022Z,100614.84
2023-03-20T06:07:42.647Z,100619.80
2023-03-20T06:08:48.075Z,100614.84
2023-03-20T06:09:51.893Z,100615.08
2023-03-20T06:10:57.084Z,100608.64
2023-03-20T06:12:00.818Z,100608.14
2023-03-20T06:13:04.291Z,100610.98
2023-03-20T06:14:09.020Z,100621.49
2023-03-20T06:15:14.249Z,100618.06
2023-03-20T06:16:19.359Z,100610.86
2023-03-20T06:17:25.401Z,100617.33
2023-03-20T06:18:30.559Z,100615.29
2023-03-20T06:19:34.931Z,100610.34
2023-03-20T06:20:39.412Z,100604.62
2023-03-20T06:21:42.747Z,100599.61
2023-03-20T06:22:46.990Z,100610.07
2023-03-20T06:23:52.363Z,100606.69
2023-03-20T06:24:59.045Z,100616.56
2023-03-20T06:26:04.237Z,100621.33
2023-03-20T06:27:09.381Z,100634.91
2023-03-20T06:28:12.270Z,100637.26
2023-03-20T06:29:16.996Z,100642.78
2023-03-20T06:30:23.506Z,100636.73
2023-03-20T06:31:26.935Z,100627.31
2023-03-20T06:32:30.185Z,100622.18
2023-03-20T06:33:35.170Z,100607.44
2023-03-20T06:34:39.077Z,100610.63
2023-03-20T06:35:44.234Z,100604.66
2023-03-20T06:36:48.308Z,100593.99
2023-03-20T06:37:53.410Z,100593.70
2023-03-20T06:38:57.588Z,100582.13
2023-03-20T06:40:01.509Z,100588.77
2023-03-20T06:41:05.628Z,100593.48
2023-03-20T06:42:08.960Z,100604.78
2023-03-20T06:43:14.396Z,100619.05
2023-03-20T06:44:20.760Z,100616.41
2023-03-20T06:45:25.709Z,100619.75
2023-03-20T06:46:33.341Z,100613.02
2023-03-20T06:47:36.548Z,100606.66
2023-03-20T06:48:42.738Z,100609.03
2023-03-20T06:49:46.426Z,100609.28
2023-03-20T06:50:50.175Z,100607.83
2023-03-20T06:51:54.545Z,100601.19
2023-03-20T06:53:01.177Z,100601.99
2023-03-20T06:54:08.499Z,100593.16
2023-03-20T06:55:11.296Z,100594.27
2023-03-20T06:56:14.798Z,100601.61
2023-03-20T06:57:19.759Z,100602.68
2023-03-20T06:58:23.906Z,100604.69
2023-03-20T06:59:27.508Z,100599.31
2023-03-20T07:00:35.986Z,100588.88
2023-03-20T07:01:41.074Z,100611.80
2023-03-20T07:02:44.361Z,100608.66
2023-03-20T07:03:49.045Z,100617.64
2023-03-20T07:04:55.069Z,100621.02
2023-03-20T07:06:01.710Z,100623.84
2023-03-20T07:07:06.175Z,100636.47
2023-03-20T07:08:11.243Z,100643.52
2023-03-20T07:09:14.578Z,100646.95
2023-03-20T07:10:17.415Z,100639.93
2023-03-20T07:11:22.849Z,100643.45
2023-03-20T07:12:28.195Z,100643.23
2023-03-20T07:13:33.778Z,100658.16
2023-03-20T07:15:00.450Z,100658.56
2023-03-20T07:16:05.240Z,100662.47
2023-03-20T07:17:10.834Z,100676.08
2023-03-20T07:18:14.825Z,100665.62
2023-03-20T07:19:19.026Z,100662.64
2023-03-20T07:20:23.392Z,100670.76
2023-03-20T07:21:27.051Z,100663.33
2023-03-20T07:22:35.101Z,100656.52
2023-03-20T07:23:40.370Z,100663.09
2023-03-20T07:24:47.420Z,100656.09
2023-03-20T07:25:51.108Z,100661.40
2023-03-20T07:26:55.163Z,100670.23
2023-03-20T07:27:58.410Z,100664.34
2023-03-20T07:29:01.586Z,100665.87
2023-03-20T07:30:06.602Z,100674.50
2023-03-20T07:31:11.518Z,100673.11
2023-03-20T07:32:14.708Z,100671.64
2023-03-20T07:33:22.461Z,100678.16
2023-03-20T07:34:25.963Z,100678.97
2023-03-20T07:35:30.406Z,100688.09
2023-03-20T07:36:33.922Z,100694.13
2023-03-20T07:37:36.418Z,100694.38
2023-03-20T07:38:40.143Z,100686.52
2023-03-20T07:39:46.066Z,100686.52
2023-03-20T07:40:53.844Z,100691.30
2023-03-20T07:41:57.157Z,100686.55
2023-03-20T07:43:01.402Z,100691.81
2023-03-20T07:44:11.991Z,100688.59
2023-03-20T07:45:19.831Z,100678.34
2023-03-20T07:46:23.642Z,100684.02
2023-03-20T07:47:26.790Z,100685.34
2023-03-20T07:48:29.889Z,100690.08
2023-03-20T07:49:35.686Z,100693.16
2023-03-20T07:50:38.973Z,100679.12
2023-03-20T07:51:41.716Z,100678.16
2023-03-20T07:52:52.895Z,100672.39
2023-03-20T07:53:57.297Z,100675.39
2023-03-20T07:55:00.713Z,100675.23
2023-03-20T07:56:03.017Z,100666.95
2023-03-20T07:57:09.700Z,100662.91
2023-03-20T07:58:13.103Z,100663.66
2023-03-20T07:59:18.264Z,100648.97
2023-03-20T08:00:21.990Z,100654.61
2023-03-20T08:01:24.850Z,100649.44
2023-03-20T08:02:29.493Z,100648.69
2023-03-20T08:03:32.836Z,100657.78
2023-03-20T08:04:37.384Z,100653.50
2023-03-20T08:05:40.877Z,100652.66
2023-03-20T08:06:43.220Z,100638.87
2023-03-20T08:07:46.576Z,100646.94
2023-03-20T08:08:53.459Z,100650.91
2023-03-20T08:09:56.862Z,100642.91
2023-03-20T08:11:00.256Z,100647.47
2023-03-20T08:12:03.768Z,100643.01
2023-03-20T08:13:07.275Z,100646.43
2023-03-20T08:14:30.348Z,100653.67
2023-03-20T08:15:34.221Z,100636.45
2023-03-20T08:16:37.771Z,100636.53
2023-03-20T08:17:44.308Z,100641.48
2023-03-20T08:18:47.674Z,100654.66
2023-03-20T08:19:50.837Z,100654.04
2023-03-20T08:20:54.046Z,100659.17
2023-03-20T08:21:58.404Z,100661.15
2023-03-20T08:23:01.444Z,100660.05
2023-03-20T08:24:04.649Z,100656.56
2023-03-20T08:25:09.036Z,100662.70
2023-03-20T08:26:13.930Z,100666.30
2023-03-20T08:28:21.621Z,100660.30
2023-03-20T08:29:24.962Z,100652.59
2023-03-20T08:30:28.340Z,100645.45
2023-03-20T08:31:33.219Z,100638.37
2023-03-20T08:32:38.056Z,100641.38
2023-03-20T08:33:41.517Z,100658.17
2023-03-20T08:34:45.249Z,100659.81
2023-03-20T08:35:58.578Z,100654.34
2023-03-20T08:37:02.675Z,100656.56
2023-03-20T08:38:05.915Z,100652.16
2023-03-20T08:39:09.579Z,100644.48
2023-03-20T08:40:12.884Z,100652.07
2023-03-20T08:41:17.280Z,100647.72
2023-03-20T08:42:21.499Z,100638.56
2023-03-20T08:43:24.801Z,100636.53
2023-03-20T08:44:27.943Z,100632.28
2023-03-20T08:45:31.243Z,100642.92
2023-03-20T08:46:35.714Z,100641.67
2023-03-20T08:47:40.694Z,100638.06
2023-03-20T08:48:43.406Z,100637.58
2023-03-20T08:49:48.554Z,100647.92
2023-03-20T08:50:51.803Z,100638.28
2023-03-20T08:51:54.096Z,100641.13
2023-03-20T08:52:57.141Z,100639.22
2023-03-20T08:53:59.718Z,100628.03
2023-03-20T08:55:02.705Z,100621.55
2023-03-20T08:56:05.791Z,100629.14
2023-03-20T08:57:09.645Z,100620.63
2023-03-20T08:58:12.822Z,100625.28
2023-03-20T08:59:16.098Z,100620.52
2023-03-20T09:00:19.825Z,100614.68
2023-03-20T09:01:26.932Z,100607.73
2023-03-20T09:02:31.431Z,100604.92
2023-03-20T09:03:35.443Z,100606.52
2023-03-20T09:04:38.580Z,100611.19
2023-03-20T09:05:42.666Z,100609.58
2023-03-20T09:06:45.757Z,100602.04
2023-03-20T09:07:48.100Z,100611.53
2023-03-20T09:08:52.374Z,100596.27
2023-03-20T09:09:55.707Z,100588.38
2023-03-20T09:10:58.932Z,100594.44
2023-03-20T09:12:01.669Z,100590.13
2023-03-20T09:13:23.455Z,100599.02
2023-03-20T09:14:10.046Z,100590.70
2023-03-20T09:15:12.598Z,100585.88
2023-03-20T09:16:15.984Z,100586.91
2023-03-20T09:17:21.090Z,100587.76
2023-03-20T09:18:25.813Z,100588.83
2023-03-20T09:19:31.762Z,100582.47
2023-03-20T09:20:35.741Z,100596.37
2023-03-20T09:21:40.515Z,100587.90
2023-03-20T09:22:45.589Z,100581.95
2023-03-20T09:23:47.743Z,100580.91
2023-03-20T09:24:50.858Z,100577.98
2023-03-20T09:25:53.812Z,100579.17
2023-03-20T09:27:01.229Z,100575.94
2023-03-20T09:28:04.335Z,100576.95
2023-03-20T09:29:07.758Z,100563.94
2023-03-20T09:30:13.280Z,100559.84
2023-03-20T09:31:16.597Z,100559.27
2023-03-20T09:32:19.807Z,100567.73
2023-03-20T09:33:22.867Z,100562.56
2023-03-20T09:34:25.619Z,100556.63
2023-03-20T09:35:28.315Z,100556.70
2023-03-20T09:36:30.569Z,100557.69
2023-03-20T09:37:33.611Z,100555.95
2023-03-20T09:38:36.876Z,100555.47
2023-03-20T09:39:39.076Z,100555.89
2023-03-20T09:40:50.986Z,100548.97
2023-03-20T09:41:57.604Z,100548.71
2023-03-20T09:43:01.961Z,100548.58
2023-03-20T09:44:06.094Z,100548.38
2023-03-20T09:45:11.617Z,100556.63
2023-03-20T09:46:22.392Z,100549.82
2023-03-20T09:47:37.503Z,100546.75
2023-03-20T09:48:49.341Z,100538.97
2023-03-20T09:50:00.225Z,100545.34
2023-03-20T09:51:08.022Z,100539.61
2023-03-20T09:52:19.523Z,100540.56
2023-03-20T09:53:23.885Z,100544.27
2023-03-20T09:54:40.441Z,100537.56
2023-03-20T09:55:40.124Z,100541.27
2023-03-20T09:56:44.914Z,100539.63
2023-03-20T09:57:50.545Z,100538.97
2023-03-20T09:58:58.483Z,100529.88
2023-03-20T10:00:03.360Z,100535.30
2023-03-20T10:01:12.466Z,100534.80
2023-03-20T10:02:18.776Z,100526.79
2023-03-20T10:03:23.931Z,100537.20
2023-03-20T10:04:29.165Z,100524.23
2023-03-20T10:05:34.405Z,100522.43
2023-03-20T10:06:36.995Z,100527.95
2023-03-20T10:07:40.121Z,100526.89
2023-03-20T10:08:43.545Z,100521.34
2023-03-20T10:09:47.452Z,100517.88
2023-03-20T10:10:56.785Z,100520.45
2023-03-20T10:12:09.580Z,100519.83
2023-03-20T10:13:29.716Z,100516.93
2023-03-20T10:14:37.483Z,100514.80
2023-03-20T10:15:45.430Z,100508.32
2023-03-20T10:16:52.539Z,100515.37
2023-03-20T10:18:02.997Z,100506.00
2023-03-20T10:19:07.921Z,100502.10
2023-03-20T10:20:15.345Z,100504.20
2023-03-20T10:21:21.499Z,100504.93
2023-03-20T10:22:27.297Z,100498.25
2023-03-20T10:23:37.641Z,100500.39
2023-03-20T10:24:41.727Z,100494.91
2023-03-20T10:25:50.312Z,100490.06
2023-03-20T10:26:54.166Z,100489.29
2023-03-20T10:28:05.039Z,100483.84
2023-03-20T10:29:10.112Z,100485.30
2023-03-20T10:30:14.286Z,100481.11
2023-03-20T10:31:19.444Z,100476.76
2023-03-20T10:32:23.610Z,100483.61
2023-03-20T10:33:46.561Z,100469.23
2023-03-20T10:34:50.820Z,100468.26
2023-03-20T10:35:56.092Z,100465.75
2023-03-20T10:37:01.378Z,100469.53
2023-03-20T10:38:06.223Z,100464.41
2023-03-20T10:39:23.211Z,100467.55
2023-03-20T10:40:39.790Z,100462.81
2023-03-20T10:41:44.967Z,100459.56
2023-03-20T10:42:51.196Z,100462.58
2023-03-20T10:43:56.242Z,100461.66
2023-03-20T10:45:01.396Z,100465.86
2023-03-20T10:46:06.409Z,100457.40
2023-03-20T10:47:10.826Z,100465.06
2023-03-20T10:48:17.525Z,100462.02
2023-03-20T10:49:39.003Z,100459.32
2023-03-20T10:50:43.932Z,100455.53
2023-03-20T10:51:48.310Z,100456.98
2023-03-20T10:52:54.406Z,100455.44
2023-03-20T10:53:59.378Z,100459.93
2023-03-20T10:55:07.305Z,100459.66
2023-03-20T10:56:15.776Z,100459.02
2023-03-20T10:57:25.440Z,100456.42
2023-03-20T10:58:31.311Z,100448.69
2023-03-20T10:59:40.635Z,100443.55
2023-03-20T11:00:44.487Z,100450.30
2023-03-20T11:01:47.904Z,100450.94
2023-03-20T11:02:52.251Z,100439.52
2023-03-20T11:03:57.935Z,100445.69
2023-03-20T11:05:03.056Z,100444.74
2023-03-20T11:06:10.452Z,100438.88
2023-03-20T11:07:18.309Z,100439.85
2023-03-20T11:08:23.561Z,100439.17
2023-03-20T11:09:30.502Z,100431.51
2023-03-20T11:10:34.038Z,100434.66
2023-03-20T11:11:39.842Z,100435.27
2023-03-20T11:12:44.058Z,100436.00
2023-03-20T11:13:48.569Z,100420.34
2023-03-20T11:14:53.456Z,100423.48
2023-03-20T11:15:56.764Z,100416.81
2023-03-20T11:17:01.974Z,100412.56
2023-03-20T11:18:05.705Z,100418.27
2023-03-20T11:19:10.142Z,100419.36
2023-03-20T11:20:13.431Z,100407.70
2023-03-20T11:21:27.327Z,100412.32
2023-03-20T11:22:31.683Z,100412.93
2023-03-20T11:23:36.765Z,100409.77
2023-03-20T11:24:46.799Z,100413.05
2023-03-20T11:25:56.349Z,100407.59
2023-03-20T11:27:06.578Z,100409.30
2023-03-20T11:28:19.140Z,100403.34
2023-03-20T11:29:27.122Z,100412.67
2023-03-20T11:30:30.480Z,100403.32
2023-03-20T11:31:40.346Z,100392.16
2023-03-20T11:32:48.250Z,100401.02
2023-03-20T11:33:53.256Z,100402.13
2023-03-20T11:34:56.937Z,100395.09
2023-03-20T11:36:00.511Z,100399.31
2023-03-20T11:37:10.534Z,100399.17
2023-03-20T11:38:19.346Z,100391.44
2023-03-20T11:39:27.532Z,100397.50
2023-03-20T11:40:31.214Z,100399.55
2023-03-20T11:41:35.473Z,100393.52
2023-03-20T11:42:37.995Z,100383.53
2023-03-20T11:43:42.333Z,100383.16
2023-03-20T11:44:47.285Z,100388.61
2023-03-20T11:45:59.033Z,100386.44
2023-03-20T11:47:07.169Z,100384.01
2023-03-20T11:48:21.192Z,100384.39
2023-03-20T11:49:24.903Z,100376.27
2023-03-20T11:50:35.879Z,100382.45
2023-03-20T11:51:41.687Z,100379.28
2023-03-20T11:52:44.076Z,100377.48
2023-03-20T11:53:49.093Z,100380.39
2023-03-20T11:54:55.849Z,100376.88
2023-03-20T11:56:07.128Z,100369.48
2023-03-20T11:57:11.455Z,100373.23
2023-03-20T11:58:17.885Z,100378.31
2023-03-20T11:59:23.039Z,100364.88
2023-03-20T12:00:38.268Z,100377.85
2023-03-20T12:01:48.561Z,100369.58
2023-03-20T12:02:53.263Z,100368.50
2023-03-20T12:04:03.483Z,100370.31
2023-03-20T12:05:25.256Z,100368.48
2023-03-20T12:06:30.002Z,100359.89
2023-03-20T12:07:34.524Z,100356.96
2023-03-20T12:08:39.569Z,100357.71
2023-03-20T12:09:45.122Z,100358.66
2023-03-20T12:10:53.015Z,100354.53
2023-03-20T12:12:00.019Z,100354.14
2023-03-20T12:13:20.021Z,100350.43
2023-03-20T12:14:28.083Z,100347.64
2023-03-20T12:15:33.782Z,100343.49
2023-03-20T12:16:41.692Z,100345.67
2023-03-20T12:17:59.560Z,100353.18
2023-03-20T12:19:04.888Z,100344.31
2023-03-20T12:20:13.477Z,100343.13
2023-03-20T12:21:24.292Z,100345.80
2023-03-20T12:22:28.905Z,100342.66
2023-03-20T12:23:34.775Z,100334.15
2023-03-20T12:24:40.200Z,100337.44
2023-03-20T12:25:54.948Z,100332.83
2023-03-20T12:27:02.232Z,100331.36
2023-03-20T12:28:20.018Z,100328.77
2023-03-20T12:29:26.339Z,100322.51
2023-03-20T12:30:31.509Z,100321.05
2023-03-20T12:31:40.128Z,100328.08
2023-03-20T12:32:45.477Z,100322.00
2023-03-20T12:33:50.698Z,100319.80
2023-03-20T12:34:58.459Z,100314.68
2023-03-20T12:36:01.644Z,100317.25
2023-03-20T12:37:05.941Z,100309.63
2023-03-20T12:38:16.546Z,100310.25
2023-03-20T12:39:21.932Z,100309.75
2023-03-20T12:40:28.000Z,100321.39
2023-03-20T12:41:47.804Z,100313.27
2023-03-20T12:43:07.810Z,100310.88
2023-03-20T12:44:14.828Z,100299.72
2023-03-20T12:45:25.654Z,100305.75